createdAt,value
2019-03-21T00:00:19.210Z,7.87
2019-03-21T00:02:59.882Z,8.60
2019-03-21T00:05:40.571Z,7.50
2019-03-21T00:08:23.729Z,7.40
2019-03-21T00:12:00.158Z,6.87
2019-03-21T00:15:12.889Z,7.10
2019-03-21T00:18:00.995Z,6.72
2019-03-21T00:20:41.577Z,7.25
2019-03-21T00:23:22.244Z,6.62
2019-03-21T00:26:02.872Z,6.45
2019-03-21T00:28:43.903Z,7.35
2019-03-21T00:31:24.508Z,6.60
2019-03-21T00:34:05.283Z,7.05
2019-03-21T00:36:46.217Z,6.30
2019-03-21T00:39:32.816Z,7.33
2019-03-21T00:42:09.266Z,6.53
2019-03-21T00:44:51.014Z,6.87
2019-03-21T00:47:31.908Z,6.53
2019-03-21T00:50:15.787Z,6.58
2019-03-21T00:52:56.933Z,7.33
2019-03-21T00:55:39.023Z,6.67
2019-03-21T00:58:19.640Z,6.50
2019-03-21T01:01:01.265Z,6.28
2019-03-21T01:03:41.872Z,6.33
2019-03-21T01:06:22.724Z,6.65
2019-03-21T01:09:04.485Z,8.33
2019-03-21T01:11:45.310Z,7.55
2019-03-21T01:14:30.057Z,7.65
2019-03-21T01:17:08.358Z,6.25
2019-03-21T01:19:48.844Z,6.30
2019-03-21T01:22:30.167Z,6.50
2019-03-21T01:25:15.628Z,7.15
2019-03-21T01:27:56.455Z,6.25
2019-03-21T01:30:37.093Z,5.87
2019-03-21T01:33:17.721Z,6.20
2019-03-21T01:35:59.510Z,6.25
2019-03-21T01:38:42.472Z,5.90
2019-03-21T01:41:23.050Z,5.33
2019-03-21T01:44:03.800Z,6.40
2019-03-21T01:46:45.407Z,5.72
2019-03-21T01:49:25.973Z,5.87
2019-03-21T01:52:06.701Z,6.80
2019-03-21T01:54:47.328Z,5.97
2019-03-21T01:57:31.719Z,6.20
2019-03-21T02:00:17.852Z,7.03
2019-03-21T02:03:00.520Z,6.28
2019-03-21T02:05:41.216Z,6.60
2019-03-21T02:08:21.932Z,6.47
2019-03-21T02:11:02.765Z,5.75
2019-03-21T02:13:46.252Z,5.72
2019-03-21T02:16:26.800Z,5.70
2019-03-21T02:19:07.521Z,5.58
2019-03-21T02:21:48.144Z,5.70
2019-03-21T02:24:29.379Z,5.58
2019-03-21T02:27:10.105Z,6.12
2019-03-21T02:29:50.845Z,5.22
2019-03-21T02:32:32.569Z,5.72
2019-03-21T02:35:13.303Z,5.03
2019-03-21T02:37:54.545Z,5.45
2019-03-21T02:40:35.700Z,5.55
2019-03-21T02:43:16.472Z,5.70
2019-03-21T02:45:57.208Z,5.95
2019-03-21T02:48:38.510Z,5.58
2019-03-21T02:51:19.293Z,6.00
2019-03-21T02:54:00.351Z,5.75
2019-03-21T02:56:40.896Z,6.28
2019-03-21T02:59:21.917Z,5.58
2019-03-21T03:02:02.414Z,6.15
2019-03-21T03:04:44.952Z,5.50
2019-03-21T03:07:26.830Z,5.67
2019-03-21T03:10:12.634Z,5.25
2019-03-21T03:12:53.185Z,5.45
2019-03-21T03:15:34.319Z,5.28
2019-03-21T03:18:14.966Z,6.00
2019-03-21T03:20:55.771Z,5.15
2019-03-21T03:23:36.371Z,5.55
2019-03-21T03:26:17.601Z,5.42
2019-03-21T03:28:58.368Z,5.28
2019-03-21T03:31:38.954Z,5.62
2019-03-21T03:34:19.461Z,5.60
2019-03-21T03:37:00.297Z,5.10
2019-03-21T03:39:40.856Z,5.70
2019-03-21T03:42:21.618Z,5.70
2019-03-21T03:45:02.271Z,5.28
2019-03-21T03:47:42.951Z,5.58
2019-03-21T03:50:23.630Z,5.30
2019-03-21T03:53:04.929Z,5.70
2019-03-21T03:55:46.663Z,6.55
2019-03-21T03:58:27.779Z,5.72
2019-03-21T04:01:08.476Z,6.33
2019-03-21T04:03:49.220Z,6.00
2019-03-21T04:06:29.853Z,6.62
2019-03-21T04:09:11.235Z,5.53
2019-03-21T04:11:52.828Z,6.03
2019-03-21T04:14:33.665Z,6.00
2019-03-21T04:17:15.388Z,5.92
2019-03-21T04:19:59.059Z,6.80
2019-03-21T04:22:39.727Z,6.33
2019-03-21T04:25:25.488Z,6.50
2019-03-21T04:28:06.134Z,5.60
2019-03-21T04:30:48.111Z,5.97
2019-03-21T04:33:29.078Z,5.80
2019-03-21T04:36:09.854Z,5.97
2019-03-21T04:38:50.688Z,5.90
2019-03-21T04:41:31.367Z,6.65
2019-03-21T04:44:12.020Z,6.65
2019-03-21T04:46:53.110Z,6.28
2019-03-21T04:49:33.656Z,6.17
2019-03-21T04:52:14.606Z,6.58
2019-03-21T04:54:55.244Z,6.55
2019-03-21T04:57:35.906Z,6.67
2019-03-21T05:00:23.592Z,7.20
2019-03-21T05:03:05.871Z,6.72
2019-03-21T05:05:47.604Z,6.87
2019-03-21T05:08:28.663Z,6.97
2019-03-21T05:11:09.215Z,6.80
2019-03-21T05:13:49.827Z,6.65
2019-03-21T05:16:30.630Z,6.65
2019-03-21T05:19:11.384Z,7.22
2019-03-21T05:21:51.954Z,7.00
2019-03-21T05:24:32.746Z,7.55
2019-03-21T05:27:13.398Z,6.72
2019-03-21T05:29:54.763Z,6.90
2019-03-21T05:32:35.510Z,7.75
2019-03-21T05:35:16.466Z,7.40
2019-03-21T05:37:57.168Z,7.45
2019-03-21T05:40:38.195Z,6.60
2019-03-21T05:43:33.447Z,7.28
2019-03-21T05:46:25.747Z,7.05
2019-03-21T05:48:56.377Z,7.70
2019-03-21T05:51:37.003Z,7.75
2019-03-21T05:54:17.481Z,7.92
2019-03-21T05:56:58.172Z,7.78
2019-03-21T05:59:38.860Z,9.00
2019-03-21T06:02:19.665Z,7.95
2019-03-21T06:05:00.331Z,8.73
2019-03-21T06:08:11.456Z,8.45
2019-03-21T06:10:52.284Z,9.03
2019-03-21T06:13:33.045Z,8.55
2019-03-21T06:16:13.791Z,8.70
2019-03-21T06:19:25.200Z,8.60
2019-03-21T06:23:05.371Z,8.88
2019-03-21T06:26:14.358Z,9.45
2019-03-21T06:28:55.106Z,8.98
2019-03-21T06:31:35.774Z,8.95
2019-03-21T06:34:16.362Z,8.40
2019-03-21T06:36:57.325Z,8.83
2019-03-21T06:39:37.938Z,9.30
2019-03-21T06:42:18.537Z,9.45
2019-03-21T06:44:59.205Z,9.23
2019-03-21T06:47:40.001Z,10.35
2019-03-21T06:50:20.773Z,8.93
2019-03-21T06:53:03.282Z,10.13
2019-03-21T06:55:44.136Z,10.38
2019-03-21T06:58:25.021Z,10.05
2019-03-21T07:01:05.673Z,10.58
2019-03-21T07:03:46.490Z,9.83
2019-03-21T07:06:26.785Z,10.07
2019-03-21T07:09:09.240Z,9.53
2019-03-21T07:11:49.830Z,9.90
2019-03-21T07:14:30.247Z,10.07
2019-03-21T07:17:14.529Z,11.03
2019-03-21T07:19:55.691Z,10.93
2019-03-21T07:22:38.423Z,10.90
2019-03-21T07:25:20.179Z,10.63
2019-03-21T07:28:00.515Z,10.57
2019-03-21T07:30:40.963Z,10.73
2019-03-21T07:33:21.268Z,10.43
2019-03-21T07:36:03.859Z,10.97
2019-03-21T07:38:46.626Z,11.30
2019-03-21T07:41:31.051Z,10.37
2019-03-21T07:44:12.633Z,10.70
2019-03-21T07:46:53.034Z,10.90
2019-03-21T07:49:33.318Z,11.17
2019-03-21T07:52:13.795Z,11.23
2019-03-21T07:54:54.359Z,9.70
2019-03-21T07:57:41.585Z,10.73
2019-03-21T08:00:22.433Z,11.97
2019-03-21T08:03:03.249Z,11.73
2019-03-21T08:05:43.483Z,12.83
2019-03-21T08:08:24.037Z,11.97
2019-03-21T08:11:04.299Z,12.23
2019-03-21T08:13:45.361Z,12.50
2019-03-21T08:16:27.111Z,11.60
2019-03-21T08:19:07.554Z,11.40
2019-03-21T08:21:49.563Z,12.20
2019-03-21T08:24:29.809Z,11.70
2019-03-21T08:27:10.093Z,12.10
2019-03-21T08:29:50.578Z,12.87
2019-03-21T08:32:30.760Z,11.93
2019-03-21T08:35:12.525Z,13.53
2019-03-21T08:37:55.813Z,14.10
2019-03-21T08:40:42.734Z,13.70
2019-03-21T08:43:23.502Z,12.20
2019-03-21T08:46:04.421Z,12.07
2019-03-21T08:48:44.771Z,13.33
2019-03-21T08:51:25.265Z,18.33
2019-03-21T08:54:06.077Z,12.10
2019-03-21T08:56:46.726Z,13.33
2019-03-21T08:59:30.671Z,13.23
2019-03-21T09:02:11.035Z,12.77
2019-03-21T09:04:52.573Z,14.30
2019-03-21T09:07:32.884Z,12.97
2019-03-21T09:10:14.711Z,17.10
2019-03-21T09:12:55.146Z,12.23
2019-03-21T09:15:35.568Z,13.47
2019-03-21T09:18:16.288Z,12.07
2019-03-21T09:20:56.556Z,13.20
2019-03-21T09:23:36.994Z,14.07
2019-03-21T09:26:17.293Z,13.67
2019-03-21T09:28:57.966Z,12.97
2019-03-21T09:31:38.192Z,13.47
2019-03-21T09:34:18.488Z,12.77
2019-03-21T09:36:58.844Z,13.37
2019-03-21T09:39:39.344Z,12.50
2019-03-21T09:42:19.524Z,12.80
2019-03-21T09:45:01.037Z,13.10
2019-03-21T09:47:41.657Z,12.03
2019-03-21T09:50:32.566Z,12.83
2019-03-21T09:53:12.789Z,13.27
2019-03-21T09:55:53.330Z,12.67
2019-03-21T09:58:36.961Z,12.67
2019-03-21T10:01:17.445Z,12.33
2019-03-21T10:03:57.654Z,12.50
2019-03-21T10:06:38.427Z,11.90
2019-03-21T10:09:20.031Z,12.10
2019-03-21T10:12:00.998Z,12.83
2019-03-21T10:14:41.299Z,12.37
2019-03-21T10:17:21.640Z,11.60
2019-03-21T10:20:02.173Z,10.93
2019-03-21T10:22:42.660Z,10.67
2019-03-21T10:25:23.141Z,11.23
2019-03-21T10:28:03.657Z,10.17
2019-03-21T10:30:44.548Z,10.40
2019-03-21T10:33:27.245Z,11.70
2019-03-21T10:36:07.743Z,11.10
2019-03-21T10:38:51.848Z,11.40
2019-03-21T10:41:32.042Z,11.30
2019-03-21T10:44:12.690Z,10.50
2019-03-21T10:46:53.168Z,9.87
2019-03-21T10:49:33.575Z,11.70
2019-03-21T10:52:14.062Z,11.43
2019-03-21T10:54:54.354Z,10.33
2019-03-21T10:57:34.896Z,9.20
2019-03-21T11:00:15.296Z,10.80
2019-03-21T11:02:55.672Z,10.27
2019-03-21T11:05:36.526Z,11.40
2019-03-21T11:08:16.845Z,11.03
2019-03-21T11:10:57.444Z,11.50
2019-03-21T11:13:38.145Z,10.27
2019-03-21T11:16:18.495Z,10.83
2019-03-21T11:19:00.150Z,11.17
2019-03-21T11:21:40.610Z,10.07
2019-03-21T11:24:20.924Z,10.77
2019-03-21T11:27:01.826Z,9.07
2019-03-21T11:29:42.486Z,10.40
2019-03-21T11:32:23.135Z,9.57
2019-03-21T11:35:03.493Z,8.37
2019-03-21T11:37:44.041Z,9.53
2019-03-21T11:40:24.361Z,9.17
2019-03-21T11:43:08.088Z,8.80
2019-03-21T11:45:49.484Z,8.50
2019-03-21T11:48:30.988Z,9.97
2019-03-21T11:51:11.525Z,8.50
2019-03-21T11:53:54.716Z,9.90
2019-03-21T11:56:35.088Z,7.20
2019-03-21T11:59:15.534Z,9.23
2019-03-21T12:01:56.328Z,8.70
2019-03-21T12:04:36.983Z,8.77
2019-03-21T12:07:17.122Z,7.90
2019-03-21T12:09:57.617Z,9.20
2019-03-21T12:12:37.967Z,7.83
2019-03-21T12:15:18.487Z,8.90
2019-03-21T12:18:00.047Z,7.17
2019-03-21T12:20:40.918Z,7.30
2019-03-21T12:23:21.182Z,7.13
2019-03-21T12:26:05.414Z,7.80
2019-03-21T12:28:45.685Z,7.47
2019-03-21T12:31:25.896Z,7.80
2019-03-21T12:34:06.359Z,6.30
2019-03-21T12:36:46.674Z,6.33
2019-03-21T12:39:28.987Z,6.90
2019-03-21T12:42:09.426Z,7.00
2019-03-21T12:44:49.703Z,7.13
2019-03-21T12:47:31.538Z,6.30
2019-03-21T12:50:13.468Z,7.30
2019-03-21T12:52:53.912Z,6.17
2019-03-21T12:55:34.116Z,7.00
2019-03-21T12:58:19.310Z,6.70
2019-03-21T13:00:59.649Z,7.73
2019-03-21T13:03:40.174Z,6.47
2019-03-21T13:06:20.430Z,6.43
2019-03-21T13:09:01.182Z,7.30
2019-03-21T13:11:43.508Z,7.03
2019-03-21T13:14:24.009Z,7.20
2019-03-21T13:17:07.123Z,8.00
2019-03-21T13:19:47.545Z,6.97
2019-03-21T13:22:27.806Z,7.13
2019-03-21T13:25:08.360Z,7.47
2019-03-21T13:27:48.589Z,8.23
2019-03-21T13:30:28.919Z,8.03
2019-03-21T13:33:13.463Z,7.10
2019-03-21T13:35:54.305Z,8.03
2019-03-21T13:38:34.637Z,19.90
2019-03-21T13:41:16.349Z,9.80
2019-03-21T13:43:56.660Z,8.37
2019-03-21T13:46:36.883Z,9.60
2019-03-21T13:49:17.126Z,9.80
2019-03-21T13:51:57.596Z,8.57
2019-03-21T13:54:39.417Z,8.33
2019-03-21T13:57:29.345Z,9.27
2019-03-21T14:00:16.271Z,8.63
2019-03-21T14:02:56.735Z,8.80
2019-03-21T14:05:38.493Z,9.43
2019-03-21T14:08:19.399Z,8.90
2019-03-21T14:11:00.924Z,9.10
2019-03-21T14:13:41.486Z,8.80
2019-03-21T14:16:21.826Z,8.90
2019-03-21T14:19:02.152Z,8.43
2019-03-21T14:21:42.543Z,8.20
2019-03-21T14:24:22.975Z,9.03
2019-03-21T14:27:03.363Z,8.00
2019-03-21T14:29:44.067Z,9.53
2019-03-21T14:32:25.551Z,9.03
2019-03-21T14:35:06.959Z,9.03
2019-03-21T14:37:47.216Z,9.03
2019-03-21T14:40:27.750Z,9.30
2019-03-21T14:43:07.976Z,9.57
2019-03-21T14:45:48.252Z,8.53
2019-03-21T14:48:28.659Z,8.80
2019-03-21T14:51:08.950Z,8.70
2019-03-21T14:53:49.370Z,8.97
2019-03-21T14:56:31.472Z,8.63
2019-03-21T14:59:12.196Z,8.60
2019-03-21T15:01:53.931Z,8.50
2019-03-21T15:04:34.416Z,8.13
2019-03-21T15:07:14.647Z,9.60
2019-03-21T15:09:54.938Z,9.63
2019-03-21T15:12:35.621Z,8.43
2019-03-21T15:15:17.593Z,9.47
2019-03-21T15:17:58.818Z,9.83
2019-03-21T15:20:39.266Z,9.67
2019-03-21T15:23:20.889Z,9.83
2019-03-21T15:26:01.532Z,9.60
2019-03-21T15:28:42.567Z,9.47
2019-03-21T15:31:25.887Z,9.20
2019-03-21T15:34:08.952Z,9.37
2019-03-21T15:36:49.920Z,9.80
2019-03-21T15:39:31.439Z,9.37
2019-03-21T15:42:13.450Z,10.23
2019-03-21T15:45:07.201Z,9.23
2019-03-21T15:47:37.383Z,9.40
2019-03-21T15:50:37.385Z,9.80
2019-03-21T15:53:16.896Z,9.70
2019-03-21T15:55:57.613Z,9.43
2019-03-21T15:58:37.949Z,9.77
2019-03-21T16:01:18.590Z,9.10
2019-03-21T16:03:59.383Z,9.37
2019-03-21T16:06:40.113Z,9.17
2019-03-21T16:09:20.564Z,8.17
2019-03-21T16:12:01.052Z,8.63
2019-03-21T16:14:44.883Z,10.13
2019-03-21T16:18:45.082Z,10.50
2019-03-21T16:21:25.552Z,9.97
2019-03-21T16:24:05.983Z,10.63
2019-03-21T16:26:48.677Z,10.77
2019-03-21T16:29:29.045Z,10.07
2019-03-21T16:32:09.451Z,12.17
2019-03-21T16:34:52.289Z,10.37
2019-03-21T16:37:36.723Z,10.23
2019-03-21T16:40:18.641Z,10.80
2019-03-21T16:42:59.744Z,10.90
2019-03-21T16:45:40.511Z,10.23
2019-03-21T16:48:21.504Z,10.87
2019-03-21T16:51:03.864Z,11.30
2019-03-21T16:53:44.722Z,11.60
2019-03-21T16:56:27.005Z,12.67
2019-03-21T16:59:09.849Z,12.70
2019-03-21T17:01:50.736Z,13.63
2019-03-21T17:04:39.618Z,13.23
2019-03-21T17:07:23.140Z,14.07
2019-03-21T17:10:03.254Z,12.97
2019-03-21T17:12:44.482Z,12.90
2019-03-21T17:15:25.644Z,14.03
2019-03-21T17:18:06.373Z,14.50
2019-03-21T17:20:47.901Z,14.63
2019-03-21T17:23:28.745Z,14.58
2019-03-21T17:26:12.349Z,14.75
2019-03-21T17:28:53.085Z,14.15
2019-03-21T17:31:34.399Z,13.53
2019-03-21T17:34:15.488Z,14.90
2019-03-21T17:36:56.665Z,16.48
2019-03-21T17:39:40.930Z,14.65
2019-03-21T17:42:21.782Z,15.50
2019-03-21T17:45:02.438Z,16.15
2019-03-21T17:47:43.330Z,16.12
2019-03-21T17:50:25.664Z,16.35
2019-03-21T17:53:07.301Z,16.37
2019-03-21T17:55:48.152Z,18.15
2019-03-21T17:58:31.326Z,15.58
2019-03-21T18:01:12.299Z,22.10
2019-03-21T18:03:54.575Z,20.08
2019-03-21T18:06:35.180Z,17.48
2019-03-21T18:09:16.087Z,17.62
2019-03-21T18:11:56.579Z,17.67
2019-03-21T18:14:37.382Z,17.57
2019-03-21T18:17:21.472Z,17.52
2019-03-21T18:20:02.195Z,17.82
2019-03-21T18:22:45.543Z,18.57
2019-03-21T18:25:25.283Z,21.87
2019-03-21T18:28:08.544Z,22.52
2019-03-21T18:30:48.863Z,20.40
2019-03-21T18:33:29.554Z,19.27
2019-03-21T18:36:10.686Z,19.32
2019-03-21T18:38:58.629Z,19.05
2019-03-21T18:41:33.579Z,20.30
2019-03-21T18:44:17.651Z,20.50
2019-03-21T18:46:58.552Z,18.87
2019-03-21T18:49:40.392Z,19.85
2019-03-21T18:52:21.749Z,20.80
2019-03-21T18:55:06.624Z,18.52
2019-03-21T18:57:47.769Z,19.98
2019-03-21T19:00:28.805Z,20.55
2019-03-21T19:03:11.798Z,20.85
2019-03-21T19:05:53.288Z,25.55
2019-03-21T19:08:34.591Z,20.27
2019-03-21T19:11:15.780Z,22.95
2019-03-21T19:13:58.127Z,22.30
2019-03-21T19:16:40.578Z,19.82
2019-03-21T19:19:22.859Z,20.55
2019-03-21T19:22:04.109Z,20.08
2019-03-21T19:24:44.932Z,20.68
2019-03-21T19:27:26.105Z,20.85
2019-03-21T19:30:09.364Z,18.50
2019-03-21T19:32:50.833Z,19.80
2019-03-21T19:35:31.844Z,21.00
2019-03-21T19:38:14.911Z,21.30
2019-03-21T19:41:01.091Z,21.48
2019-03-21T19:43:43.301Z,22.10
2019-03-21T19:46:26.032Z,23.77
2019-03-21T19:49:08.666Z,22.35
2019-03-21T19:51:50.110Z,26.23
2019-03-21T19:54:34.652Z,26.30
2019-03-21T19:57:17.790Z,27.50
2019-03-21T19:59:58.889Z,28.52
2019-03-21T20:02:40.102Z,29.10
2019-03-21T20:05:22.428Z,29.35
2019-03-21T20:08:05.931Z,30.08
2019-03-21T20:10:47.197Z,29.00
2019-03-21T20:13:28.775Z,27.42
2019-03-21T20:16:13.510Z,28.42
2019-03-21T20:18:54.842Z,28.38
2019-03-21T20:21:47.119Z,26.27
2019-03-21T20:24:18.787Z,21.42
2019-03-21T20:27:01.109Z,22.50
2019-03-21T20:29:45.217Z,24.18
2019-03-21T20:32:26.550Z,24.50
2019-03-21T20:35:09.673Z,27.13
2019-03-21T20:37:53.716Z,26.23
2019-03-21T20:40:41.292Z,25.45
2019-03-21T20:43:23.681Z,24.87
2019-03-21T20:46:04.443Z,25.85
2019-03-21T20:48:43.622Z,26.10
2019-03-21T20:51:24.596Z,25.92
2019-03-21T20:54:10.372Z,27.30
2019-03-21T20:56:52.468Z,25.40
2019-03-21T20:59:33.229Z,25.80
2019-03-21T21:02:13.951Z,26.60
2019-03-21T21:04:54.648Z,26.07
2019-03-21T21:07:35.437Z,25.85
2019-03-21T21:10:17.055Z,24.98
2019-03-21T21:12:59.114Z,25.95
2019-03-21T21:15:39.697Z,25.95
2019-03-21T21:18:20.376Z,25.05
2019-03-21T21:21:01.309Z,26.27
2019-03-21T21:23:42.402Z,24.25
2019-03-21T21:26:23.211Z,24.15
2019-03-21T21:29:04.099Z,24.18
2019-03-21T21:31:45.282Z,24.77
2019-03-21T21:34:26.334Z,25.32
2019-03-21T21:37:11.768Z,23.20
2019-03-21T21:39:54.427Z,23.70
2019-03-21T21:42:35.486Z,22.20
2019-03-21T21:45:16.961Z,22.65
2019-03-21T21:48:00.045Z,21.15
2019-03-21T21:50:40.691Z,21.30
2019-03-21T21:53:21.331Z,21.65
2019-03-21T21:56:04.545Z,22.00
2019-03-21T21:58:45.073Z,20.23
2019-03-21T22:01:27.135Z,21.55
2019-03-21T22:04:16.796Z,21.23
2019-03-21T22:06:58.177Z,21.42
2019-03-21T22:09:39.328Z,22.25
2019-03-21T22:12:20.232Z,21.15
2019-03-21T22:15:00.910Z,21.85
2019-03-21T22:17:41.952Z,22.55
2019-03-21T22:20:22.701Z,20.52
2019-03-21T22:23:03.534Z,20.62
2019-03-21T22:25:45.309Z,20.30
2019-03-21T22:28:26.073Z,21.35
2019-03-21T22:31:08.082Z,21.60
2019-03-21T22:33:49.240Z,20.48
2019-03-21T22:36:29.966Z,20.70
2019-03-21T22:39:11.206Z,21.33
2019-03-21T22:41:51.878Z,20.52
2019-03-21T22:44:32.724Z,20.75
2019-03-21T22:47:13.335Z,20.40
2019-03-21T22:49:55.053Z,20.15
2019-03-21T22:52:35.900Z,21.15
2019-03-21T22:55:16.707Z,21.57
2019-03-21T22:57:57.380Z,21.25
2019-03-21T23:00:41.564Z,20.95
2019-03-21T23:03:25.411Z,21.62
2019-03-21T23:06:06.243Z,21.07
2019-03-21T23:08:47.080Z,21.45
2019-03-21T23:11:27.615Z,22.82
2019-03-21T23:14:08.220Z,21.40
2019-03-21T23:16:49.056Z,21.00
2019-03-21T23:19:30.486Z,20.97
2019-03-21T23:22:11.254Z,22.15
2019-03-21T23:24:51.988Z,20.32
2019-03-21T23:27:32.686Z,19.37
2019-03-21T23:30:13.629Z,20.52
2019-03-21T23:32:55.841Z,19.85
2019-03-21T23:35:36.505Z,20.40
2019-03-21T23:38:17.350Z,19.23
2019-03-21T23:40:58.758Z,20.23
2019-03-21T23:43:40.911Z,19.12
2019-03-21T23:46:24.610Z,19.40
2019-03-21T23:49:05.246Z,19.00
2019-03-21T23:51:46.143Z,18.92
2019-03-21T23:54:27.015Z,19.52
2019-03-21T23:57:08.011Z,19.67
2019-03-21T23:59:51.157Z,18.52
